Time;durP1;ratioP1;P1;durP2;ratioP2;P2;SDS_P1;SDS_P2;PMS_P1;PMS_P2;Temp;Humidity;BMP_temperature;BMP_pressure;BME280_temperature;BME280_humidity;BME280_pressure;Samples;Min_cycle;Max_cycle;Signal;HPM_P1;HPM_P2
2022/09/06 15:21:27;;;;;;;3.75;2.45;;;28.70;70.30;;;;;;5110563;27;20414;-64
2022/09/06 15:23:53;;;;;;;4.28;2.60;;;28.80;71.30;;;;;;5109511;28;20464;-66
2022/09/06 15:26:20;;;;;;;3.17;2.55;;;28.80;70.70;;;;;;5104178;28;20043;-66
2022/09/06 15:28:45;;;;;;;2.97;2.60;;;28.70;69.50;;;;;;5105090;28;20024;-66
2022/09/06 15:31:12;;;;;;;3.97;2.88;;;28.60;69.10;;;;;;5090291;28;20039;-66
2022/09/06 15:33:39;;;;;;;2.80;2.50;;;28.50;68.80;;;;;;5088817;28;20040;-65
2022/09/06 15:36:09;;;;;;;4.30;2.95;;;28.40;68.60;;;;;;5105812;28;20044;-65
2022/09/06 15:38:37;;;;;;;4.85;2.38;;;28.30;69.00;;;;;;5090118;28;20083;-65
2022/09/06 15:41:23;;;;;;;5.65;2.53;;;28.40;69.20;;;;;;5105159;28;20543;-65
2022/09/06 15:43:51;;;;;;;4.03;2.78;;;28.30;68.80;;;;;;5091816;28;20044;-65
2022/09/06 15:46:19;;;;;;;9.38;2.60;;;28.30;69.00;;;;;;5090139;28;20257;-66
2022/09/06 15:48:50;;;;;;;5.35;2.28;;;28.20;68.70;;;;;;5090132;28;20044;-65
2022/09/06 15:51:18;;;;;;;2.72;2.53;;;28.20;68.40;;;;;;5089338;28;20115;-66
2022/09/06 15:53:47;;;;;;;2.90;2.50;;;28.10;69.00;;;;;;5102858;28;20043;-66
2022/09/06 15:56:15;;;;;;;3.58;2.50;;;28.00;69.00;;;;;;5133064;27;21564;-66
2022/09/06 15:58:40;;;;;;;2.85;2.50;;;28.00;69.50;;;;;;5089896;28;20119;-66
2022/09/06 16:01:14;;;;;;;3.00;2.47;;;27.90;70.60;;;;;;5088198;28;20232;-65
2022/09/06 16:03:52;;;;;;;2.78;2.38;;;27.80;70.80;;;;;;5089452;28;20360;-66
2022/09/06 16:06:26;;;;;;;8.10;2.83;;;27.80;70.40;;;;;;5100330;28;20039;-66
2022/09/06 16:08:59;;;;;;;4.97;2.80;;;27.70;71.80;;;;;;5133808;27;20043;-66
2022/09/06 16:11:29;;;;;;;5.65;2.60;;;27.60;71.90;;;;;;5093187;28;20075;-65
2022/09/06 16:13:58;;;;;;;8.05;2.72;;;27.60;72.40;;;;;;5100725;28;20040;-65
2022/09/06 16:16:23;;;;;;;3.53;2.60;;;27.50;71.40;;;;;;5108273;28;20039;-65
2022/09/06 16:18:51;;;;;;;3.78;2.70;;;27.50;71.50;;;;;;5109569;28;20470;-66
2022/09/06 16:21:19;;;;;;;4.15;2.50;;;27.50;71.30;;;;;;5141367;27;20048;-67
2022/09/06 16:23:53;;;;;;;2.63;2.40;;;27.50;71.40;;;;;;5108478;28;20040;-66
2022/09/06 16:26:19;;;;;;;3.70;2.55;;;27.50;71.70;;;;;;5106377;28;20123;-65
2022/09/06 16:28:46;;;;;;;3.78;2.45;;;27.40;71.80;;;;;;5106256;28;20123;-65
2022/09/06 16:31:12;;;;;;;2.85;2.35;;;27.40;72.50;;;;;;5085325;28;20047;-66
2022/09/06 16:34:03;;;;;;;4.65;2.50;;;27.30;72.60;;;;;;5074454;28;20115;-66
2022/09/06 16:36:55;;;;;;;3.33;2.50;;;27.20;73.80;;;;;;5057660;28;20052;-66
2022/09/06 16:39:21;;;;;;;6.15;2.70;;;27.10;74.00;;;;;;5075628;28;20036;-66
2022/09/06 16:41:48;;;;;;;3.20;2.35;;;26.90;75.10;;;;;;5074276;28;20045;-66
2022/09/06 16:44:16;;;;;;;6.15;2.83;;;26.90;75.50;;;;;;5079577;28;20119;-66
2022/09/06 16:46:47;;;;;;;9.85;2.80;;;26.70;76.10;;;;;;5095969;28;20043;-66
2022/09/06 16:49:15;;;;;;;3.92;2.63;;;26.60;77.70;;;;;;5094840;28;20414;-66
2022/09/06 16:51:41;;;;;;;4.85;2.78;;;26.50;79.40;;;;;;5094043;28;20046;-66
2022/09/06 16:54:09;;;;;;;6.18;2.97;;;26.40;80.70;;;;;;5094116;28;20111;-65
2022/09/06 16:56:35;;;;;;;5.45;2.65;;;26.20;81.40;;;;;;5128401;27;20046;-66
2022/09/06 16:59:04;;;;;;;4.40;2.78;;;26.10;82.10;;;;;;5094176;28;20115;-66
2022/09/06 17:01:31;;;;;;;3.28;2.60;;;26.00;83.10;;;;;;5095082;28;20111;-65
2022/09/06 17:03:56;;;;;;;3.50;2.80;;;25.90;85.00;;;;;;5092531;28;20048;-65
2022/09/06 17:06:25;;;;;;;5.45;2.95;;;25.80;86.70;;;;;;5093218;28;20082;-65
2022/09/06 17:08:51;;;;;;;3.20;2.90;;;25.70;88.20;;;;;;5094968;28;20036;-65
2022/09/06 17:11:19;;;;;;;4.22;2.88;;;25.60;90.00;;;;;;5093209;28;20479;-66
2022/09/06 17:13:47;;;;;;;4.40;2.95;;;25.50;91.40;;;;;;5095032;28;20032;-65
2022/09/06 17:19:28;;;;;;;5.50;2.75;;;25.30;93.30;;;;;;5091065;28;20140;-67
2022/09/06 17:22:23;;;;;;;5.40;2.75;;;25.30;94.40;;;;;;5074488;28;20135;-66
2022/09/06 17:24:48;;;;;;;4.93;3.17;;;25.20;95.00;;;;;;5076492;28;20044;-66
2022/09/06 17:27:14;;;;;;;6.60;2.80;;;25.10;94.70;;;;;;5073172;28;20394;-65
2022/09/06 17:29:40;;;;;;;3.50;2.70;;;25.10;95.10;;;;;;5081169;28;20051;-65
2022/09/06 17:32:08;;;;;;;5.28;2.50;;;25.00;95.80;;;;;;5081418;28;20071;-67
2022/09/06 17:34:38;;;;;;;4.50;2.88;;;25.00;96.20;;;;;;5116854;27;20048;-66
2022/09/06 17:37:16;;;;;;;3.95;2.85;;;25.00;96.60;;;;;;5081581;28;20539;-66
2022/09/06 17:39:42;;;;;;;2.70;2.50;;;25.00;96.70;;;;;;5072927;28;20048;-65
2022/09/06 17:42:40;;;;;;;4.15;2.50;;;24.90;96.20;;;;;;5072907;28;20045;-65
2022/09/06 17:45:09;;;;;;;3.60;2.75;;;24.80;94.70;;;;;;5073832;28;20468;-66
2022/09/06 17:47:35;;;;;;;3.60;2.88;;;24.80;95.00;;;;;;5073265;28;20041;-66
2022/09/06 17:50:00;;;;;;;3.47;3.17;;;24.80;95.10;;;;;;5106409;28;20048;-66
2022/09/06 17:52:27;;;;;;;4.13;2.92;;;24.70;95.10;;;;;;5079530;28;20044;-66
2022/09/06 17:54:53;;;;;;;5.57;3.90;;;24.80;95.50;;;;;;5073147;28;20381;-66
2022/09/06 17:58:10;;;;;;;6.05;3.47;;;24.70;96.50;;;;;;5083537;28;20147;-67
2022/09/06 18:01:36;;;;;;;4.78;3.58;;;24.60;97.70;;;;;;5093501;28;20372;-67
2022/09/06 18:04:04;;;;;;;4.10;3.67;;;24.60;99.00;;;;;;5084351;28;20100;-64
2022/09/06 18:06:41;;;;;;;4.63;3.55;;;24.50;99.30;;;;;;5087991;28;20051;-65
2022/09/06 18:09:31;;;;;;;4.43;2.92;;;24.40;99.90;;;;;;5113960;27;20048;-65
2022/09/06 18:11:57;;;;;;;4.53;3.72;;;24.30;99.90;;;;;;5088159;28;20119;-65
2022/09/06 18:14:23;;;;;;;4.22;3.60;;;24.20;99.90;;;;;;5096387;28;20099;-66
2022/09/06 18:16:53;;;;;;;5.40;3.60;;;24.10;99.90;;;;;;5096517;28;20120;-65
2022/09/06 18:19:18;;;;;;;3.90;3.50;;;24.10;99.90;;;;;;5089016;28;20051;-65
2022/09/06 18:21:47;;;;;;;5.10;3.70;;;24.00;99.90;;;;;;5088286;28;20044;-65
2022/09/06 18:24:14;;;;;;;6.32;3.60;;;23.90;99.90;;;;;;5082459;28;20461;-65
2022/09/06 18:26:43;;;;;;;5.57;4.00;;;23.80;99.90;;;;;;5081128;28;20083;-66
2022/09/06 18:29:13;;;;;;;5.07;3.85;;;23.80;99.90;;;;;;5072142;28;20044;-66
2022/09/06 18:31:39;;;;;;;7.95;4.18;;;23.80;99.90;;;;;;5072491;28;20049;-65
2022/09/06 18:34:06;;;;;;;4.97;4.47;;;23.60;99.90;;;;;;5086724;28;20060;-64
2022/09/06 18:36:32;;;;;;;5.72;4.43;;;23.60;99.90;;;;;;5073182;28;20039;-65
2022/09/06 18:39:17;;;;;;;6.38;5.22;;;23.60;99.90;;;;;;5070007;28;20043;-67
2022/09/06 18:42:12;;;;;;;5.47;5.00;;;23.60;99.90;;;;;;5109302;27;20388;-66
2022/09/06 18:44:39;;;;;;;4.72;4.32;;;23.50;99.90;;;;;;5092254;28;20361;-66
2022/09/06 18:47:07;;;;;;;6.47;5.03;;;23.40;99.90;;;;;;5075956;28;20049;-66
2022/09/06 18:49:40;;;;;;;6.95;4.05;;;23.30;99.90;;;;;;5090053;28;20042;-66
2022/09/06 18:52:12;;;;;;;7.93;4.20;;;23.20;99.90;;;;;;5068787;28;20042;-66
2022/09/06 18:54:37;;;;;;;7.43;4.93;;;23.20;99.90;;;;;;5083695;28;20039;-66
2022/09/06 18:57:31;;;;;;;7.10;4.32;;;23.20;99.90;;;;;;5090056;28;20111;-67
2022/09/06 19:00:01;;;;;;;6.10;4.45;;;23.10;99.90;;;;;;5090462;28;20123;-66
2022/09/06 19:02:51;;;;;;;6.35;4.70;;;23.10;99.90;;;;;;5090985;28;20093;-66
2022/09/06 19:05:17;;;;;;;6.20;4.97;;;23.00;99.90;;;;;;5087511;28;20040;-66
2022/09/06 19:08:07;;;;;;;6.95;4.57;;;23.00;99.90;;;;;;5085089;28;20471;-67
2022/09/06 19:10:35;;;;;;;6.57;4.35;;;22.90;99.90;;;;;;5090106;28;20048;-66
2022/09/06 19:17:05;;;;;;;6.03;4.32;;;22.90;99.90;;;;;;5091208;28;20075;-66
2022/09/06 19:19:37;;;;;;;6.05;4.45;;;22.80;99.90;;;;;;5089823;28;20059;-67
2022/09/06 19:26:15;;;;;;;6.60;4.05;;;22.60;99.90;;;;;;5085736;28;20055;-66
2022/09/06 19:28:45;;;;;;;7.38;4.53;;;22.60;99.90;;;;;;5087577;28;20107;-67
2022/09/06 19:35:36;;;;;;;5.18;4.28;;;22.50;99.90;;;;;;5102151;28;20116;-67
2022/09/06 19:38:01;;;;;;;4.43;3.97;;;22.40;99.90;;;;;;5076103;28;20047;-67
2022/09/06 19:40:27;;;;;;;4.78;3.95;;;22.30;99.90;;;;;;5074645;28;20039;-66
2022/09/06 19:43:11;;;;;;;7.13;4.38;;;22.30;99.90;;;;;;5089254;28;20032;-66
2022/09/06 19:45:38;;;;;;;6.72;4.13;;;22.30;99.90;;;;;;5074017;28;20198;-66
2022/09/06 19:48:16;;;;;;;4.40;4.00;;;22.30;99.90;;;;;;5066671;28;20379;-66
2022/09/06 19:51:10;;;;;;;6.95;4.60;;;22.30;99.90;;;;;;5086039;28;20044;-66
2022/09/06 19:53:37;;;;;;;6.55;4.03;;;22.30;99.90;;;;;;5089539;28;20181;-66
2022/09/06 19:56:59;;;;;;;5.95;4.13;;;22.20;99.90;;;;;;5104767;28;20081;-66
2022/09/06 20:03:58;;;;;;;6.68;4.32;;;22.30;99.90;;;;;;5091749;28;20432;-66
2022/09/06 20:10:33;;;;;;;7.28;3.95;;;22.10;99.90;;;;;;5078464;28;20066;-66
2022/09/06 20:20:54;;;;;;;6.35;4.03;;;22.10;99.90;;;;;;5095813;28;20048;-66
2022/09/06 20:24:02;;;;;;;9.55;5.35;;;22.00;99.90;;;;;;5077153;28;20044;-66
2022/09/06 20:26:55;;;;;;;7.40;4.40;;;22.00;99.90;;;;;;5095141;28;20066;-65
2022/09/06 20:29:21;;;;;;;4.70;4.30;;;22.00;99.90;;;;;;5095941;28;20040;-66
2022/09/06 20:34:38;;;;;;;5.85;4.80;;;21.90;99.90;;;;;;5093324;28;20040;-67
2022/09/06 20:41:37;;;;;;;6.35;4.68;;;21.90;99.90;;;;;;5099336;28;20039;-65
2022/09/06 20:48:13;;;;;;;7.97;5.57;;;21.80;99.90;;;;;;5095670;28;20109;-66
2022/09/06 20:50:39;;;;;;;6.18;4.65;;;21.80;99.90;;;;;;5097546;28;20058;-66
2022/09/06 20:53:04;;;;;;;5.47;4.97;;;21.80;99.90;;;;;;5094349;28;20126;-65
2022/09/06 20:55:30;;;;;;;4.80;4.30;;;21.80;99.90;;;;;;5069393;28;20047;-66
2022/09/06 20:57:55;;;;;;;7.13;4.90;;;21.80;99.90;;;;;;5097315;28;20130;-66
2022/09/06 21:01:14;;;;;;;5.43;4.70;;;21.70;99.90;;;;;;5124063;27;20039;-66
2022/09/06 21:03:41;;;;;;;5.65;5.15;;;21.70;99.90;;;;;;5095324;28;20134;-66
2022/09/06 21:06:08;;;;;;;8.85;5.63;;;21.60;99.90;;;;;;5095926;28;20035;-66
2022/09/06 21:09:00;;;;;;;6.47;5.20;;;21.60;99.90;;;;;;5104933;28;20072;-66
2022/09/06 21:12:17;;;;;;;6.80;5.47;;;21.60;99.90;;;;;;5096010;28;20058;-66
2022/09/06 21:14:43;;;;;;;5.88;5.18;;;21.60;99.90;;;;;;5077240;28;20048;-66
2022/09/06 21:17:37;;;;;;;5.00;4.47;;;21.60;99.90;;;;;;5102930;28;20042;-66
2022/09/06 21:20:03;;;;;;;8.25;5.40;;;21.60;99.90;;;;;;5106818;28;20097;-66
2022/09/06 21:22:57;;;;;;;6.95;5.18;;;21.50;99.90;;;;;;5106496;28;20047;-67
2022/09/06 21:25:23;;;;;;;6.38;5.78;;;21.50;99.90;;;;;;5095216;28;20043;-66
2022/09/06 21:27:48;;;;;;;5.60;4.90;;;21.50;99.90;;;;;;5130027;27;20376;-66
2022/09/06 21:30:14;;;;;;;7.05;5.03;;;21.40;99.90;;;;;;5096162;28;20042;-66
2022/09/06 21:32:40;;;;;;;7.85;4.88;;;21.40;99.90;;;;;;5095837;28;20213;-66
2022/09/06 21:35:06;;;;;;;6.95;4.80;;;21.40;99.90;;;;;;5095561;28;20036;-66
2022/09/06 21:37:32;;;;;;;7.60;4.93;;;21.40;99.90;;;;;;5095280;28;20367;-66
2022/09/06 21:39:58;;;;;;;9.82;5.38;;;21.30;99.90;;;;;;5114730;28;20040;-66
2022/09/06 21:42:26;;;;;;;11.80;5.32;;;21.30;99.90;;;;;;5104616;28;20055;-66
2022/09/06 21:44:52;;;;;;;6.97;4.97;;;21.20;99.90;;;;;;5129821;27;20483;-66
2022/09/06 21:47:17;;;;;;;7.38;5.13;;;21.20;99.90;;;;;;5095598;28;20043;-66
2022/09/06 21:49:43;;;;;;;7.32;5.40;;;21.10;99.90;;;;;;5112123;28;20046;-66
2022/09/06 21:52:08;;;;;;;10.20;5.20;;;21.00;99.90;;;;;;5077625;28;20123;-66
2022/09/06 21:54:34;;;;;;;10.63;5.63;;;20.90;99.90;;;;;;5113763;28;20078;-66
2022/09/06 21:56:59;;;;;;;7.40;6.18;;;20.90;99.90;;;;;;5095200;28;20039;-66
2022/09/06 21:59:25;;;;;;;6.05;5.40;;;20.90;99.90;;;;;;5122842;27;20036;-66
2022/09/06 22:01:51;;;;;;;7.35;4.93;;;20.90;99.90;;;;;;5114587;27;20043;-66
2022/09/06 22:04:18;;;;;;;5.75;5.25;;;20.90;99.90;;;;;;5095714;28;20044;-66
2022/09/06 22:06:45;;;;;;;7.65;5.72;;;20.90;99.90;;;;;;5095295;28;20060;-66
2022/09/06 22:09:11;;;;;;;10.57;5.45;;;20.90;99.90;;;;;;5107210;27;20043;-66
2022/09/06 22:11:38;;;;;;;13.85;5.38;;;20.80;99.90;;;;;;5110915;27;20118;-66
2022/09/06 22:14:07;;;;;;;8.30;5.65;;;20.80;99.90;;;;;;5096696;28;20067;-66
2022/09/06 22:16:35;;;;;;;9.10;5.53;;;20.80;99.90;;;;;;5112080;28;20095;-66
2022/09/06 22:23:11;;;;;;;7.80;4.70;;;20.70;99.90;;;;;;5111205;28;20046;-66
2022/09/06 22:25:36;;;;;;;6.07;5.55;;;20.70;99.90;;;;;;5087270;28;20082;-66
2022/09/06 22:28:27;;;;;;;9.93;5.25;;;20.70;99.90;;;;;;5104766;28;20499;-66
2022/09/06 22:31:27;;;;;;;7.18;4.97;;;20.70;99.90;;;;;;5104391;27;20051;-66
2022/09/06 22:33:53;;;;;;;7.13;5.30;;;20.60;99.90;;;;;;5074960;28;20040;-66
2022/09/06 22:36:19;;;;;;;7.40;5.60;;;20.60;99.90;;;;;;5100435;28;20394;-66
2022/09/06 22:38:45;;;;;;;6.32;5.72;;;20.60;99.90;;;;;;5088590;27;20395;-66
2022/09/06 22:41:11;;;;;;;6.50;5.90;;;20.60;99.90;;;;;;5086859;28;20051;-66
2022/09/06 22:43:36;;;;;;;6.07;5.47;;;20.60;99.90;;;;;;5078983;28;20062;-66
2022/09/06 22:46:04;;;;;;;8.65;6.20;;;20.50;99.90;;;;;;5094772;28;20043;-66
2022/09/06 22:48:30;;;;;;;7.15;6.40;;;20.30;99.90;;;;;;5094647;28;20102;-66
2022/09/06 22:50:56;;;;;;;9.07;6.10;;;20.20;99.90;;;;;;5111939;28;20055;-66
2022/09/06 22:53:22;;;;;;;10.25;6.93;;;20.20;99.90;;;;;;5110694;28;20352;-66
2022/09/06 22:55:47;;;;;;;8.27;6.47;;;20.10;99.90;;;;;;5112785;28;20435;-66
2022/09/06 22:58:13;;;;;;;9.02;6.85;;;20.00;99.90;;;;;;5112873;28;20747;-66
2022/09/06 23:00:38;;;;;;;9.00;6.72;;;19.90;99.90;;;;;;5093968;28;20122;-67
2022/09/06 23:03:04;;;;;;;8.18;7.18;;;19.80;99.90;;;;;;5077795;28;20407;-67
2022/09/06 23:05:31;;;;;;;8.60;7.70;;;19.70;99.90;;;;;;5099997;28;20139;-67
2022/09/06 23:08:00;;;;;;;10.60;7.80;;;19.60;99.90;;;;;;5109306;28;20051;-68
2022/09/06 23:10:29;;;;;;;10.73;8.43;;;19.50;99.90;;;;;;5120657;27;20101;-67
2022/09/06 23:12:56;;;;;;;9.25;7.97;;;19.40;99.90;;;;;;5095633;28;20382;-65
2022/09/06 23:15:21;;;;;;;10.70;8.63;;;19.30;99.90;;;;;;5093034;28;20093;-65
2022/09/06 23:17:47;;;;;;;9.93;9.02;;;19.20;99.90;;;;;;5093918;28;20044;-67
2022/09/06 23:20:13;;;;;;;13.63;8.88;;;19.10;99.90;;;;;;5094084;28;20385;-65
2022/09/06 23:22:39;;;;;;;9.85;8.48;;;19.10;99.90;;;;;;5111609;28;20384;-65
2022/09/06 23:25:58;;;;;;;13.05;9.90;;;19.00;99.90;;;;;;5113312;28;20051;-66
2022/09/06 23:28:24;;;;;;;11.55;9.20;;;19.00;99.90;;;;;;5115784;28;20365;-66
2022/09/06 23:30:49;;;;;;;10.93;9.82;;;18.90;99.90;;;;;;5114363;28;20043;-66
2022/09/06 23:33:15;;;;;;;12.10;8.70;;;18.90;99.90;;;;;;5132149;28;20091;-66
2022/09/06 23:35:41;;;;;;;10.40;9.27;;;18.70;99.90;;;;;;5114225;28;20043;-66
2022/09/06 23:38:06;;;;;;;12.98;9.73;;;18.70;99.90;;;;;;5110854;28;20047;-66
2022/09/06 23:40:32;;;;;;;10.52;9.50;;;18.60;99.90;;;;;;5108849;28;20398;-66
2022/09/06 23:42:57;;;;;;;10.85;8.88;;;18.60;99.90;;;;;;5126084;27;20444;-66
2022/09/06 23:45:23;;;;;;;11.63;9.57;;;18.50;99.90;;;;;;5126123;27;20048;-66
2022/09/06 23:47:48;;;;;;;11.80;9.48;;;18.50;99.90;;;;;;5127615;27;20040;-66
2022/09/06 23:50:14;;;;;;;10.95;9.45;;;18.50;99.90;;;;;;5098870;28;20035;-66
2022/09/06 23:52:40;;;;;;;9.85;8.88;;;18.40;99.90;;;;;;5130799;27;20103;-66
2022/09/06 23:55:08;;;;;;;15.18;10.50;;;18.40;99.90;;;;;;5118463;27;20051;-66
2022/09/06 23:57:33;;;;;;;11.60;10.32;;;18.40;99.90;;;;;;5118494;27;20130;-66
2022/09/06 23:59:59;;;;;;;14.73;9.90;;;18.30;99.90;;;;;;5144790;27;20145;-66
